createdAt,value
2022-12-23T00:03:48.021Z,5.97
2022-12-23T00:08:04.636Z,5.58
2022-12-23T00:12:39.445Z,5.34
2022-12-23T00:16:55.721Z,5.09
2022-12-23T00:21:14.622Z,5.25
2022-12-23T00:25:46.640Z,5.54
2022-12-23T00:30:06.562Z,5.35
2022-12-23T00:34:22.830Z,5.44
2022-12-23T00:39:11.741Z,5.55
2022-12-23T00:43:28.114Z,5.76
2022-12-23T00:48:06.906Z,5.70
2022-12-23T00:52:23.112Z,6.15
2022-12-23T00:56:39.342Z,6.12
2022-12-23T01:01:14.324Z,6.05
2022-12-23T01:05:39.851Z,6.36
2022-12-23T01:09:56.134Z,6.15
2022-12-23T01:14:12.957Z,6.07
2022-12-23T01:18:29.168Z,6.25
2022-12-23T01:22:45.354Z,6.24
2022-12-23T01:27:01.849Z,6.18
2022-12-23T01:31:17.938Z,6.05
2022-12-23T01:35:34.162Z,6.09
2022-12-23T01:39:50.402Z,6.03
2022-12-23T01:44:44.027Z,5.89
2022-12-23T01:49:00.402Z,6.26
2022-12-23T01:53:22.787Z,6.47
2022-12-23T01:57:41.336Z,6.83
2022-12-23T02:02:16.251Z,6.45
2022-12-23T02:06:59.468Z,6.39
2022-12-23T02:11:31.904Z,6.61
2022-12-23T02:16:12.426Z,6.68
2022-12-23T02:20:40.604Z,6.59
2022-12-23T02:25:08.496Z,6.79
2022-12-23T02:29:36.664Z,6.70
2022-12-23T02:34:16.329Z,6.25
2022-12-23T02:38:53.604Z,6.56
2022-12-23T02:43:26.572Z,6.70
2022-12-23T02:47:59.070Z,6.55
2022-12-23T02:52:17.612Z,6.53
2022-12-23T02:56:35.554Z,6.50
2022-12-23T03:00:51.879Z,6.27
2022-12-23T03:05:25.481Z,6.33
2022-12-23T03:09:41.412Z,6.32
2022-12-23T03:14:21.151Z,6.37
2022-12-23T03:18:55.924Z,6.26
2022-12-23T03:23:42.429Z,6.41
2022-12-23T03:28:10.627Z,6.01
2022-12-23T03:32:28.676Z,5.94
2022-12-23T03:36:55.338Z,6.21
2022-12-23T03:41:20.884Z,6.22
2022-12-23T03:45:43.206Z,6.05
2022-12-23T03:50:08.323Z,6.10
2022-12-23T03:54:32.687Z,5.95
2022-12-23T03:59:00.227Z,6.05
2022-12-23T04:03:43.410Z,6.25
2022-12-23T04:08:25.714Z,6.07
2022-12-23T04:12:42.133Z,6.37
2022-12-23T04:16:59.456Z,6.26
2022-12-23T04:21:15.660Z,6.25
2022-12-23T04:25:31.855Z,6.19
2022-12-23T04:29:48.020Z,6.16
2022-12-23T04:34:04.268Z,5.97
2022-12-23T04:38:20.551Z,6.28
2022-12-23T04:42:37.138Z,6.25
2022-12-23T04:46:53.489Z,6.23
2022-12-23T04:51:09.740Z,6.15
2022-12-23T04:55:25.891Z,6.32
2022-12-23T04:59:42.234Z,6.21
2022-12-23T05:03:58.510Z,6.15
2022-12-23T05:08:14.724Z,6.20
2022-12-23T05:12:31.366Z,5.93
2022-12-23T05:16:47.706Z,6.18
2022-12-23T05:21:04.033Z,6.23
2022-12-23T05:25:20.142Z,6.25
2022-12-23T05:29:36.366Z,6.42
2022-12-23T05:33:52.500Z,6.28
2022-12-23T05:38:08.834Z,6.14
2022-12-23T05:42:25.039Z,6.33
2022-12-23T05:46:41.335Z,6.36
2022-12-23T05:50:57.552Z,6.48
2022-12-23T05:55:13.693Z,6.57
2022-12-23T05:59:31.684Z,6.67
2022-12-23T06:03:48.160Z,6.61
2022-12-23T06:08:05.171Z,6.49
2022-12-23T06:12:21.427Z,6.54
2022-12-23T06:16:37.692Z,6.67
2022-12-23T06:20:53.988Z,6.20
2022-12-23T06:25:10.281Z,6.31
2022-12-23T06:29:26.550Z,6.25
2022-12-23T06:33:42.699Z,6.37
2022-12-23T06:37:58.876Z,6.43
2022-12-23T06:42:15.125Z,6.77
2022-12-23T06:46:31.510Z,6.50
2022-12-23T06:50:47.793Z,6.87
2022-12-23T06:55:04.380Z,6.82
2022-12-23T06:59:20.625Z,6.69
2022-12-23T07:03:36.920Z,6.49
2022-12-23T07:07:53.268Z,6.33
2022-12-23T07:12:09.609Z,6.14
2022-12-23T07:16:25.725Z,6.19
2022-12-23T07:20:41.931Z,6.29
2022-12-23T07:24:58.097Z,6.36
2022-12-23T07:29:14.353Z,6.28
2022-12-23T07:33:30.493Z,6.53
2022-12-23T07:37:50.833Z,6.55
2022-12-23T07:42:42.893Z,6.48
2022-12-23T07:46:43.134Z,6.07
2022-12-23T07:51:03.932Z,6.13
2022-12-23T07:55:20.840Z,6.17
2022-12-23T07:59:37.080Z,6.23
2022-12-23T08:03:53.371Z,6.43
2022-12-23T08:08:09.538Z,6.23
2022-12-23T08:12:26.404Z,6.51
2022-12-23T08:16:44.225Z,6.74
2022-12-23T08:21:15.399Z,6.57
2022-12-23T08:25:31.647Z,6.81
2022-12-23T08:29:47.967Z,6.84
2022-12-23T08:34:05.254Z,6.44
2022-12-23T08:38:21.739Z,6.42
2022-12-23T08:42:37.956Z,6.47
2022-12-23T08:46:55.641Z,6.36
2022-12-23T08:51:14.331Z,6.18
2022-12-23T08:55:30.454Z,6.47
2022-12-23T08:59:47.204Z,6.89
2022-12-23T09:04:05.319Z,6.64
2022-12-23T09:08:21.516Z,6.72
2022-12-23T09:12:37.705Z,6.81
2022-12-23T09:16:53.901Z,6.57
2022-12-23T09:21:16.080Z,6.65
2022-12-23T09:25:33.055Z,6.71
2022-12-23T09:29:49.250Z,7.01
2022-12-23T09:34:06.395Z,7.08
2022-12-23T09:38:22.589Z,7.24
2022-12-23T09:42:44.849Z,6.71
2022-12-23T09:47:09.083Z,7.01
2022-12-23T09:51:25.383Z,7.22
2022-12-23T09:55:55.460Z,7.01
2022-12-23T10:00:14.237Z,6.91
2022-12-23T10:04:41.882Z,7.07
2022-12-23T10:09:08.887Z,7.21
2022-12-23T10:13:26.878Z,6.08
2022-12-23T10:17:43.765Z,6.72
2022-12-23T10:22:06.509Z,7.18
2022-12-23T10:27:00.610Z,7.11
2022-12-23T10:31:39.900Z,7.12
2022-12-23T10:36:20.592Z,7.41
2022-12-23T10:41:08.769Z,7.30
2022-12-23T10:45:31.680Z,7.42
2022-12-23T10:50:19.189Z,7.51
2022-12-23T10:54:37.283Z,7.40
2022-12-23T10:58:57.302Z,7.30
2022-12-23T11:03:23.684Z,7.44
2022-12-23T11:07:45.110Z,7.42
2022-12-23T11:12:07.682Z,7.51
2022-12-23T11:16:28.897Z,7.55
2022-12-23T11:21:01.052Z,7.66
2022-12-23T11:25:29.894Z,7.29
2022-12-23T11:29:51.680Z,7.44
2022-12-23T11:34:15.674Z,7.48
2022-12-23T11:38:32.737Z,7.33
2022-12-23T11:42:53.461Z,7.46
2022-12-23T11:47:44.051Z,7.55
2022-12-23T11:52:15.131Z,7.51
2022-12-23T11:56:40.913Z,7.48
2022-12-23T12:01:06.496Z,7.48
2022-12-23T12:05:48.867Z,7.47
2022-12-23T12:10:05.407Z,7.37
2022-12-23T12:14:43.441Z,7.24
2022-12-23T12:19:04.906Z,7.65
2022-12-23T12:23:34.211Z,7.48
2022-12-23T12:27:56.915Z,7.27
2022-12-23T12:32:22.846Z,7.52
2022-12-23T12:36:53.389Z,7.53
2022-12-23T12:41:15.124Z,7.74
2022-12-23T12:46:06.080Z,7.78
2022-12-23T12:50:31.316Z,7.30
2022-12-23T12:55:15.257Z,7.40
2022-12-23T12:59:36.840Z,7.67
2022-12-23T13:04:04.898Z,7.52
2022-12-23T13:08:29.868Z,7.44
2022-12-23T13:13:20.561Z,7.40
2022-12-23T13:17:48.497Z,7.34
2022-12-23T13:22:20.695Z,7.50
2022-12-23T13:26:56.628Z,7.40
2022-12-23T13:31:49.617Z,7.39
2022-12-23T13:36:28.311Z,7.49
2022-12-23T13:41:00.224Z,7.27
2022-12-23T13:45:17.757Z,7.50
2022-12-23T13:50:10.826Z,7.57
2022-12-23T13:54:49.580Z,7.57
2022-12-23T13:59:12.220Z,7.48
2022-12-23T14:03:34.572Z,7.43
2022-12-23T14:07:50.925Z,7.60
2022-12-23T14:12:22.443Z,7.47
2022-12-23T14:16:51.679Z,7.51
2022-12-23T14:21:22.723Z,7.52
2022-12-23T14:25:38.989Z,7.64
2022-12-23T14:30:17.733Z,7.31
2022-12-23T14:34:36.580Z,7.41
2022-12-23T14:39:11.422Z,7.57
2022-12-23T14:43:45.962Z,7.39
2022-12-23T14:48:22.812Z,7.25
2022-12-23T14:52:59.485Z,7.31
2022-12-23T14:57:21.907Z,7.21
2022-12-23T15:01:42.078Z,7.32
2022-12-23T15:05:59.371Z,7.33
2022-12-23T15:10:24.906Z,7.30
2022-12-23T15:14:54.461Z,7.33
2022-12-23T15:19:23.337Z,7.14
2022-12-23T15:23:49.965Z,7.05
2022-12-23T15:28:06.532Z,6.63
2022-12-23T15:32:24.493Z,6.81
2022-12-23T15:36:43.618Z,6.79
2022-12-23T15:41:06.041Z,6.85
2022-12-23T15:45:30.417Z,6.87
2022-12-23T15:49:46.704Z,6.68
2022-12-23T15:54:05.140Z,7.07
2022-12-23T15:58:23.805Z,7.14
2022-12-23T16:03:01.703Z,6.77
2022-12-23T16:07:34.527Z,7.04
2022-12-23T16:12:25.348Z,7.15
2022-12-23T16:16:42.877Z,6.88
2022-12-23T16:21:05.316Z,6.97
2022-12-23T16:25:25.772Z,6.95
2022-12-23T16:29:42.102Z,6.87
2022-12-23T16:34:01.893Z,6.76
2022-12-23T16:38:26.426Z,6.65
2022-12-23T16:42:42.637Z,6.71
2022-12-23T16:47:04.132Z,6.69
2022-12-23T16:51:22.397Z,6.82
2022-12-23T16:55:41.670Z,6.75
2022-12-23T17:00:00.583Z,6.56
2022-12-23T17:04:16.765Z,6.50
2022-12-23T17:08:32.996Z,6.60
2022-12-23T17:12:49.777Z,6.73
2022-12-23T17:17:15.167Z,6.63
2022-12-23T17:21:34.413Z,6.57
2022-12-23T17:25:53.603Z,6.78
2022-12-23T17:30:21.409Z,6.72
2022-12-23T17:34:37.648Z,6.59
2022-12-23T17:38:53.970Z,6.42
2022-12-23T17:43:17.200Z,6.59
2022-12-23T17:47:33.432Z,6.88
2022-12-23T17:52:03.479Z,6.13
2022-12-23T17:56:21.609Z,6.45
2022-12-23T18:00:38.813Z,6.48
2022-12-23T18:04:55.113Z,6.49
2022-12-23T18:09:13.324Z,6.48
2022-12-23T18:13:29.967Z,6.54
2022-12-23T18:17:46.154Z,6.59
2022-12-23T18:22:02.917Z,6.57
2022-12-23T18:26:19.227Z,6.47
2022-12-23T18:30:35.607Z,6.63
2022-12-23T18:34:53.395Z,6.59
2022-12-23T18:39:09.596Z,6.64
2022-12-23T18:43:28.287Z,6.39
2022-12-23T18:47:44.441Z,6.45
2022-12-23T18:52:04.445Z,6.38
2022-12-23T18:56:24.267Z,6.34
2022-12-23T19:00:42.132Z,6.20
2022-12-23T19:04:58.405Z,6.23
2022-12-23T19:09:22.385Z,6.25
2022-12-23T19:13:38.623Z,6.01
2022-12-23T19:17:54.869Z,6.06
2022-12-23T19:22:11.008Z,5.98
2022-12-23T19:26:27.567Z,5.73
2022-12-23T19:30:43.730Z,6.06
2022-12-23T19:35:00.047Z,5.91
2022-12-23T19:39:17.355Z,6.04
2022-12-23T19:43:35.278Z,6.13
2022-12-23T19:47:51.471Z,5.87
2022-12-23T19:52:07.714Z,5.89
2022-12-23T19:56:25.278Z,6.00
2022-12-23T20:00:42.027Z,6.12
2022-12-23T20:04:58.369Z,6.40
2022-12-23T20:09:15.039Z,6.18
2022-12-23T20:13:31.215Z,6.15
2022-12-23T20:17:47.423Z,6.12
2022-12-23T20:22:03.702Z,5.83
2022-12-23T20:26:22.328Z,5.79
2022-12-23T20:30:38.625Z,5.59
2022-12-23T20:34:55.811Z,5.65
2022-12-23T20:39:12.261Z,5.90
2022-12-23T20:43:29.468Z,5.94
2022-12-23T20:47:46.558Z,6.29
2022-12-23T20:52:03.222Z,6.18
2022-12-23T20:56:20.796Z,5.91
2022-12-23T21:00:36.992Z,6.00
2022-12-23T21:04:53.159Z,6.06
2022-12-23T21:09:11.861Z,6.19
2022-12-23T21:13:28.038Z,6.21
2022-12-23T21:17:44.154Z,6.27
2022-12-23T21:22:00.380Z,6.24
2022-12-23T21:26:21.807Z,6.43
2022-12-23T21:30:37.968Z,6.12
2022-12-23T21:34:54.131Z,5.99
2022-12-23T21:39:16.120Z,5.88
2022-12-23T21:43:32.775Z,6.08
2022-12-23T21:47:49.072Z,6.00
2022-12-23T21:52:05.289Z,6.01
2022-12-23T21:56:24.578Z,5.84
2022-12-23T22:00:40.769Z,6.17
2022-12-23T22:04:57.089Z,6.15
2022-12-23T22:09:16.135Z,6.10
2022-12-23T22:13:32.310Z,6.13
2022-12-23T22:17:48.894Z,6.12
2022-12-23T22:22:05.086Z,6.16
2022-12-23T22:26:26.063Z,6.29
2022-12-23T22:30:42.566Z,6.24
2022-12-23T22:34:58.727Z,6.21
2022-12-23T22:39:20.652Z,6.45
2022-12-23T22:43:37.952Z,6.09
2022-12-23T22:47:54.620Z,6.48
2022-12-23T22:52:10.898Z,6.49
2022-12-23T22:56:27.616Z,6.47
2022-12-23T23:00:43.748Z,6.32
2022-12-23T23:04:59.943Z,5.87
2022-12-23T23:09:18.124Z,6.11
2022-12-23T23:13:35.424Z,6.14
2022-12-23T23:17:51.759Z,6.21
2022-12-23T23:22:08.023Z,6.22
2022-12-23T23:26:27.661Z,6.35
2022-12-23T23:30:43.991Z,6.16
2022-12-23T23:35:02.969Z,6.27
2022-12-23T23:39:23.197Z,6.39
2022-12-23T23:43:39.319Z,6.49
2022-12-23T23:47:56.264Z,6.29
2022-12-23T23:52:12.543Z,6.50
2022-12-23T23:56:33.909Z,6.20
